createdAt,value
2023-05-20T00:07:47.323Z,12.9
2023-05-20T00:17:49.609Z,12.8
2023-05-20T00:27:51.508Z,12.7
2023-05-20T00:37:54.157Z,12.5
2023-05-20T00:47:55.853Z,12.4
2023-05-20T00:57:58.352Z,12.4
2023-05-20T01:08:00.596Z,12.3
2023-05-20T01:18:02.793Z,12.2
2023-05-20T01:28:04.891Z,12
2023-05-20T01:38:07.324Z,11.8
2023-05-20T01:48:09.222Z,11.6
2023-05-20T01:58:11.166Z,11.4
2023-05-20T02:08:13.231Z,11.3
2023-05-20T02:18:15.134Z,11.3
2023-05-20T02:28:17.272Z,11.2
2023-05-20T02:38:19.524Z,11.2
2023-05-20T03:08:26.016Z,10.9
2023-05-20T03:18:28.376Z,10.7
2023-05-20T03:28:30.870Z,10.7
2023-05-20T03:38:32.634Z,10.6
2023-05-20T03:48:34.906Z,10.7
2023-05-20T03:58:36.726Z,10.7
2023-05-20T04:08:39.209Z,10.8
2023-05-20T04:18:41.670Z,11
2023-05-20T04:28:44.282Z,11.6
2023-05-20T04:48:47.779Z,11.9
2023-05-20T04:58:49.537Z,12.4
2023-05-20T05:08:52.068Z,12.8
2023-05-20T05:18:54.037Z,13.4
2023-05-20T05:28:56.582Z,13.6
2023-05-20T05:38:59.243Z,13.7
2023-05-20T05:49:01.144Z,14
2023-05-20T06:09:05.140Z,14.1
2023-05-20T06:29:09.657Z,15
2023-05-20T06:49:14.154Z,15.1
2023-05-20T07:09:18.537Z,14.2
2023-05-20T07:29:22.789Z,13.8
2023-05-20T07:49:26.359Z,13.7
2023-05-20T08:09:30.956Z,14.1
2023-05-20T08:49:40.380Z,14.3
2023-05-20T09:09:44.770Z,14.5
2023-05-20T09:29:48.966Z,15
2023-05-20T09:49:53.121Z,15.3
2023-05-20T10:09:57.469Z,15.5
2023-05-20T10:30:02.280Z,16.3
2023-05-20T10:40:04.727Z,17.2
2023-05-20T11:00:09.929Z,17.2
2023-05-20T11:20:13.692Z,17.6
2023-05-20T11:40:18.246Z,18.2
2023-05-20T12:00:23.148Z,18.5
2023-05-20T12:10:25.690Z,18.9
2023-05-20T12:20:28.095Z,18.2
2023-05-20T12:30:29.995Z,18.5
2023-05-20T12:40:32.185Z,18.9
2023-05-20T12:50:34.891Z,18.7
2023-05-20T13:00:36.936Z,19
2023-05-20T13:10:39.308Z,19
2023-05-20T13:20:41.397Z,18.8
2023-05-20T13:30:43.093Z,18.6
2023-05-20T13:40:45.048Z,18.6
2023-05-20T13:50:46.873Z,18.9
2023-05-20T14:00:49.330Z,18.4
2023-05-20T14:10:51.391Z,18.5
2023-05-20T14:40:58.611Z,18.5
2023-05-20T15:01:02.252Z,18.9
2023-05-20T15:21:06.799Z,18.5
2023-05-20T15:41:11.391Z,18
2023-05-20T15:51:13.285Z,17.9
2023-05-20T15:52:40.731Z,17.9
2023-05-20T16:01:23.566Z,17.8
2023-05-20T16:11:25.555Z,17.7
2023-05-20T16:21:27.642Z,17.5
2023-05-20T17:21:41.169Z,17
2023-05-20T17:41:45.102Z,16.9
2023-05-20T17:51:46.886Z,16.8
2023-05-20T18:01:48.966Z,16.7
2023-05-20T18:11:50.953Z,16.6
2023-05-20T18:21:53.037Z,16.6
2023-05-20T18:41:57.479Z,16.4
2023-05-20T19:02:02.072Z,16.1
2023-05-20T19:22:07.275Z,15.9
2023-05-20T19:42:11.287Z,15.8
2023-05-20T20:02:15.864Z,15.7
2023-05-20T20:12:18.460Z,15.6
2023-05-20T20:22:21.137Z,15.6
2023-05-20T20:32:22.986Z,15.5
2023-05-20T20:42:24.863Z,15.4
2023-05-20T20:52:26.613Z,15.3
2023-05-20T21:02:28.960Z,15.3
2023-05-20T21:12:30.621Z,15.2
2023-05-20T21:22:33.105Z,15.1
2023-05-20T21:32:35.494Z,15
2023-05-20T21:42:37.733Z,14.9
2023-05-20T21:52:40.132Z,14.8
2023-05-20T22:02:42.628Z,14.6
2023-05-20T22:12:44.511Z,14.5
2023-05-20T22:22:46.224Z,14.4
2023-05-20T22:32:48.192Z,14.3
2023-05-20T22:42:50.096Z,14.1
2023-05-20T22:52:52.724Z,14
2023-05-20T23:02:54.591Z,13.9
2023-05-20T23:12:57.139Z,13.8
2023-05-20T23:23:03.550Z,13.7
2023-05-20T23:33:01.694Z,13.5
2023-05-20T23:43:03.570Z,13.4
2023-05-20T23:53:06.025Z,13.3
